Terminal Aerodrome Forecast
Issued by NWS Sioux Falls, SD

Home | Current Version | Previous Version | Graphics & Text | Print | Product List | Glossary On
Versions: 1 2 3 4 5 6 7 8 9 10 11 12
000
FTUS43 KFSD 251120
TAFFSD
TAF
KFSD 251120Z 2512/2612 15013G19KT P6SM BKN120
     FM251700 18018G26KT P6SM BKN090
     FM252100 19012KT P6SM BKN080
     FM260100 18008KT P6SM BKN100
     FM260700 21004KT P6SM BKN150
     FM261100 31004KT P6SM BKN150=

USA.gov is the U.S. government's official web portal to all federal, state and local government web resources and services.